This is the latest recevied weather packets stored in our database for station/object DM3FAM-10. If no packets are shown the sender has not sent any weather packets the latest 10 day(s).
| Time | Temp. | Humidity | Pressure | Rain* | Wind** | Luminosity | Snow |
|---|---|---|---|---|---|---|---|
| 1777633898 | 22.78° C | 29% | 974.8 hPa | - | - | - | - |
| 1777632998 | 23.33° C | 27% | 975 hPa | - | - | - | - |
| 1777632098 | 23.33° C | 27% | 975.2 hPa | - | - | - | - |
| 1777631198 | 23.89° C | 26% | 975.2 hPa | - | - | - | - |
| 1777630298 | 26.67° C | 22% | 975.3 hPa | - | - | - | - |
| 1777629398 | 27.78° C | 20% | 975.4 hPa | - | - | - | - |
| 1777628498 | 26.11° C | 23% | 975.5 hPa | - | - | - | - |
| 1777627598 | 26.67° C | 20% | 975.5 hPa | - | - | - | - |
| 1777626698 | 23.89° C | 24% | 975.5 hPa | - | - | - | - |
| 1777625798 | 21.11° C | 27% | 975.4 hPa | - | - | - | - |
| 1777624898 | 16.11° C | 34% | 975.5 hPa | - | - | - | - |
| 1777623998 | 13.33° C | 39% | 975.5 hPa | - | - | - | - |
| 1777623098 | 12.78° C | 40% | 975.5 hPa | - | - | - | - |
| 1777622198 | 11.67° C | 42% | 975.4 hPa | - | - | - | - |
| 1777621298 | 11.11° C | 44% | 975.5 hPa | - | - | - | - |
| 1777620398 | 10.56° C | 47% | 975.4 hPa | - | - | - | - |
| 1777619497 | 9.44° C | 49% | 975.3 hPa | - | - | - | - |
| 1777618597 | 8.33° C | 56% | 975.3 hPa | - | - | - | - |
| 1777617697 | 7.22° C | 76% | 975.2 hPa | - | - | - | - |
| 1777616797 | 5.56° C | 83% | 975.2 hPa | - | - | - | - |
| 1777615897 | 3.89° C | 85% | 975.2 hPa | - | - | - | - |
| 1777614997 | 3.33° C | 86% | 975.1 hPa | - | - | - | - |
| 1777614097 | 3.33° C | 80% | 975.1 hPa | - | - | - | - |
| 1777613197 | 2.78° C | 83% | 975.1 hPa | - | - | - | - |
| 1777612297 | 2.22° C | 84% | 975.1 hPa | - | - | - | - |
* Rain since midnight (hover to see other rain measurements)
** Current wind speed in m/s (hover to see current wind gust speed)